sensor_id;sensor_type;location;lat;lon;timestamp;P1;durP1;ratioP1;P2;durP2;ratioP2
70818;SDS011;58439;51.046;13.692;2022-10-17T00:01:01;12.45;;;5.10;;
70818;SDS011;58439;51.046;13.692;2022-10-17T00:03:29;10.60;;;5.50;;
70818;SDS011;58439;51.046;13.692;2022-10-17T00:05:58;10.25;;;5.47;;
70818;SDS011;58439;51.046;13.692;2022-10-17T00:08:31;10.80;;;5.15;;
70818;SDS011;58439;51.046;13.692;2022-10-17T00:11:02;10.73;;;4.82;;
70818;SDS011;58439;51.046;13.692;2022-10-17T00:26:03;7.05;;;3.88;;
70818;SDS011;58439;51.046;13.692;2022-10-17T00:28:31;11.15;;;4.60;;
70818;SDS011;58439;51.046;13.692;2022-10-17T00:30:59;13.55;;;5.32;;
70818;SDS011;58439;51.046;13.692;2022-10-17T00:33:30;7.00;;;3.95;;
70818;SDS011;58439;51.046;13.692;2022-10-17T00:36:14;9.55;;;4.72;;
70818;SDS011;58439;51.046;13.692;2022-10-17T00:38:46;22.85;;;6.13;;
70818;SDS011;58439;51.046;13.692;2022-10-17T00:41:18;9.68;;;4.68;;
70818;SDS011;58439;51.046;13.692;2022-10-17T00:43:56;7.47;;;4.60;;
70818;SDS011;58439;51.046;13.692;2022-10-17T00:46:33;8.27;;;4.70;;
70818;SDS011;58439;51.046;13.692;2022-10-17T00:49:07;11.38;;;5.07;;
70818;SDS011;58439;51.046;13.692;2022-10-17T00:51:54;11.48;;;4.68;;
70818;SDS011;58439;51.046;13.692;2022-10-17T00:55:44;11.80;;;4.85;;
70818;SDS011;58439;51.046;13.692;2022-10-17T00:58:19;10.18;;;5.13;;
70818;SDS011;58439;51.046;13.692;2022-10-17T01:00:47;11.95;;;5.32;;
70818;SDS011;58439;51.046;13.692;2022-10-17T01:03:14;11.48;;;5.45;;
70818;SDS011;58439;51.046;13.692;2022-10-17T01:05:42;18.08;;;5.45;;
70818;SDS011;58439;51.046;13.692;2022-10-17T01:08:13;10.38;;;5.57;;
70818;SDS011;58439;51.046;13.692;2022-10-17T01:22:13;17.85;;;8.98;;
70818;SDS011;58439;51.046;13.692;2022-10-17T01:38:12;30.35;;;13.00;;
70818;SDS011;58439;51.046;13.692;2022-10-17T01:40:50;24.45;;;12.05;;
70818;SDS011;58439;51.046;13.692;2022-10-17T01:43:38;28.45;;;13.20;;
70818;SDS011;58439;51.046;13.692;2022-10-17T01:46:28;28.98;;;13.45;;
70818;SDS011;58439;51.046;13.692;2022-10-17T01:49:03;28.75;;;13.93;;
70818;SDS011;58439;51.046;13.692;2022-10-17T01:51:37;27.35;;;14.80;;
70818;SDS011;58439;51.046;13.692;2022-10-17T01:54:13;30.52;;;14.43;;
70818;SDS011;58439;51.046;13.692;2022-10-17T01:57:12;29.85;;;14.52;;
70818;SDS011;58439;51.046;13.692;2022-10-17T02:00:14;32.30;;;14.95;;
70818;SDS011;58439;51.046;13.692;2022-10-17T02:02:57;34.53;;;16.95;;
70818;SDS011;58439;51.046;13.692;2022-10-17T02:05:36;40.97;;;16.80;;
70818;SDS011;58439;51.046;13.692;2022-10-17T02:08:08;35.28;;;16.05;;
70818;SDS011;58439;51.046;13.692;2022-10-17T02:13:51;37.03;;;18.58;;
70818;SDS011;58439;51.046;13.692;2022-10-17T02:17:23;37.40;;;17.70;;
70818;SDS011;58439;51.046;13.692;2022-10-17T02:20:23;38.55;;;18.10;;
70818;SDS011;58439;51.046;13.692;2022-10-17T02:23:19;38.15;;;17.50;;
70818;SDS011;58439;51.046;13.692;2022-10-17T02:26:27;35.85;;;18.30;;
70818;SDS011;58439;51.046;13.692;2022-10-17T02:29:07;39.78;;;19.02;;
70818;SDS011;58439;51.046;13.692;2022-10-17T02:31:47;38.25;;;18.90;;
70818;SDS011;58439;51.046;13.692;2022-10-17T02:34:51;37.35;;;17.38;;
70818;SDS011;58439;51.046;13.692;2022-10-17T02:37:26;35.55;;;17.40;;
70818;SDS011;58439;51.046;13.692;2022-10-17T02:39:58;39.60;;;19.67;;
70818;SDS011;58439;51.046;13.692;2022-10-17T02:42:27;41.20;;;18.02;;
70818;SDS011;58439;51.046;13.692;2022-10-17T02:44:58;40.88;;;18.45;;
70818;SDS011;58439;51.046;13.692;2022-10-17T02:47:31;34.10;;;17.70;;
70818;SDS011;58439;51.046;13.692;2022-10-17T02:50:03;43.20;;;18.75;;
70818;SDS011;58439;51.046;13.692;2022-10-17T02:56:02;39.67;;;20.20;;
70818;SDS011;58439;51.046;13.692;2022-10-17T02:58:39;46.47;;;20.98;;
70818;SDS011;58439;51.046;13.692;2022-10-17T03:03:39;40.53;;;19.35;;
70818;SDS011;58439;51.046;13.692;2022-10-17T03:06:06;41.13;;;20.33;;
70818;SDS011;58439;51.046;13.692;2022-10-17T03:08:33;41.10;;;20.02;;
70818;SDS011;58439;51.046;13.692;2022-10-17T03:11:01;44.55;;;20.67;;
70818;SDS011;58439;51.046;13.692;2022-10-17T03:13:29;39.42;;;19.75;;
70818;SDS011;58439;51.046;13.692;2022-10-17T03:15:58;38.65;;;18.75;;
70818;SDS011;58439;51.046;13.692;2022-10-17T03:18:25;40.35;;;18.20;;
70818;SDS011;58439;51.046;13.692;2022-10-17T03:20:57;32.07;;;16.97;;
70818;SDS011;58439;51.046;13.692;2022-10-17T03:23:25;36.22;;;18.52;;
70818;SDS011;58439;51.046;13.692;2022-10-17T03:25:53;40.40;;;18.65;;
70818;SDS011;58439;51.046;13.692;2022-10-17T03:28:20;43.13;;;20.30;;
70818;SDS011;58439;51.046;13.692;2022-10-17T03:30:48;44.53;;;20.77;;
70818;SDS011;58439;51.046;13.692;2022-10-17T03:33:15;47.70;;;22.35;;
70818;SDS011;58439;51.046;13.692;2022-10-17T03:35:42;45.17;;;22.83;;
70818;SDS011;58439;51.046;13.692;2022-10-17T03:38:09;47.80;;;23.05;;
70818;SDS011;58439;51.046;13.692;2022-10-17T03:40:36;55.13;;;22.90;;
70818;SDS011;58439;51.046;13.692;2022-10-17T03:43:04;53.95;;;24.52;;
70818;SDS011;58439;51.046;13.692;2022-10-17T03:45:31;54.85;;;23.90;;
70818;SDS011;58439;51.046;13.692;2022-10-17T03:47:58;57.10;;;25.60;;
70818;SDS011;58439;51.046;13.692;2022-10-17T03:50:25;57.13;;;26.40;;
70818;SDS011;58439;51.046;13.692;2022-10-17T03:52:54;56.78;;;25.83;;
70818;SDS011;58439;51.046;13.692;2022-10-17T03:55:21;51.85;;;24.33;;
70818;SDS011;58439;51.046;13.692;2022-10-17T03:58:27;49.28;;;24.27;;
70818;SDS011;58439;51.046;13.692;2022-10-17T04:00:55;60.72;;;25.70;;
70818;SDS011;58439;51.046;13.692;2022-10-17T04:03:39;45.63;;;23.35;;
70818;SDS011;58439;51.046;13.692;2022-10-17T04:06:07;52.47;;;23.98;;
70818;SDS011;58439;51.046;13.692;2022-10-17T04:08:41;57.20;;;24.10;;
70818;SDS011;58439;51.046;13.692;2022-10-17T04:11:13;56.33;;;24.77;;
70818;SDS011;58439;51.046;13.692;2022-10-17T04:13:45;51.28;;;26.13;;
70818;SDS011;58439;51.046;13.692;2022-10-17T04:16:14;51.80;;;26.15;;
70818;SDS011;58439;51.046;13.692;2022-10-17T04:19:43;64.68;;;27.48;;
70818;SDS011;58439;51.046;13.692;2022-10-17T04:22:14;61.15;;;28.08;;
70818;SDS011;58439;51.046;13.692;2022-10-17T04:24:45;66.00;;;28.10;;
70818;SDS011;58439;51.046;13.692;2022-10-17T04:27:24;60.60;;;28.20;;
70818;SDS011;58439;51.046;13.692;2022-10-17T04:29:51;58.28;;;28.25;;
70818;SDS011;58439;51.046;13.692;2022-10-17T04:32:22;63.53;;;28.45;;
70818;SDS011;58439;51.046;13.692;2022-10-17T04:35:13;60.38;;;27.83;;
70818;SDS011;58439;51.046;13.692;2022-10-17T04:37:45;62.67;;;29.73;;
70818;SDS011;58439;51.046;13.692;2022-10-17T04:40:38;65.63;;;28.90;;
70818;SDS011;58439;51.046;13.692;2022-10-17T04:43:10;64.60;;;29.60;;
70818;SDS011;58439;51.046;13.692;2022-10-17T04:46:29;65.68;;;30.95;;
70818;SDS011;58439;51.046;13.692;2022-10-17T04:49:00;61.50;;;30.80;;
70818;SDS011;58439;51.046;13.692;2022-10-17T04:51:28;73.00;;;30.48;;
70818;SDS011;58439;51.046;13.692;2022-10-17T04:58:27;69.70;;;30.88;;
70818;SDS011;58439;51.046;13.692;2022-10-17T05:00:57;70.40;;;32.10;;
70818;SDS011;58439;51.046;13.692;2022-10-17T05:03:27;71.07;;;32.42;;
70818;SDS011;58439;51.046;13.692;2022-10-17T05:05:54;76.78;;;34.28;;
70818;SDS011;58439;51.046;13.692;2022-10-17T05:08:22;70.03;;;33.15;;
70818;SDS011;58439;51.046;13.692;2022-10-17T05:10:49;72.53;;;33.08;;
70818;SDS011;58439;51.046;13.692;2022-10-17T05:13:17;70.05;;;33.33;;
70818;SDS011;58439;51.046;13.692;2022-10-17T05:15:44;86.55;;;34.10;;
70818;SDS011;58439;51.046;13.692;2022-10-17T05:18:12;73.50;;;33.50;;
70818;SDS011;58439;51.046;13.692;2022-10-17T05:26:00;72.95;;;32.90;;
70818;SDS011;58439;51.046;13.692;2022-10-17T05:29:07;81.13;;;35.03;;
70818;SDS011;58439;51.046;13.692;2022-10-17T05:31:38;77.93;;;34.70;;
70818;SDS011;58439;51.046;13.692;2022-10-17T05:34:07;78.28;;;35.17;;
70818;SDS011;58439;51.046;13.692;2022-10-17T05:36:40;71.95;;;34.70;;
70818;SDS011;58439;51.046;13.692;2022-10-17T05:39:08;75.10;;;34.58;;
70818;SDS011;58439;51.046;13.692;2022-10-17T05:41:36;73.30;;;35.65;;
70818;SDS011;58439;51.046;13.692;2022-10-17T05:44:04;82.45;;;35.65;;
70818;SDS011;58439;51.046;13.692;2022-10-17T05:46:40;79.78;;;34.58;;
70818;SDS011;58439;51.046;13.692;2022-10-17T05:49:08;73.18;;;35.78;;
70818;SDS011;58439;51.046;13.692;2022-10-17T05:51:56;70.65;;;34.15;;
70818;SDS011;58439;51.046;13.692;2022-10-17T05:54:25;72.35;;;34.92;;
70818;SDS011;58439;51.046;13.692;2022-10-17T05:56:55;74.35;;;35.33;;
70818;SDS011;58439;51.046;13.692;2022-10-17T05:59:27;76.60;;;36.38;;
70818;SDS011;58439;51.046;13.692;2022-10-17T06:02:00;73.50;;;34.67;;
70818;SDS011;58439;51.046;13.692;2022-10-17T06:04:28;71.20;;;33.17;;
70818;SDS011;58439;51.046;13.692;2022-10-17T06:06:56;74.80;;;35.45;;
70818;SDS011;58439;51.046;13.692;2022-10-17T06:09:23;80.50;;;36.47;;
70818;SDS011;58439;51.046;13.692;2022-10-17T06:19:05;76.47;;;37.28;;
70818;SDS011;58439;51.046;13.692;2022-10-17T06:21:33;75.18;;;36.13;;
70818;SDS011;58439;51.046;13.692;2022-10-17T06:24:08;79.95;;;37.45;;
70818;SDS011;58439;51.046;13.692;2022-10-17T06:26:40;76.25;;;37.65;;
70818;SDS011;58439;51.046;13.692;2022-10-17T06:29:11;72.70;;;35.38;;
70818;SDS011;58439;51.046;13.692;2022-10-17T06:31:45;69.28;;;33.00;;
70818;SDS011;58439;51.046;13.692;2022-10-17T06:34:13;72.22;;;35.58;;
70818;SDS011;58439;51.046;13.692;2022-10-17T06:36:40;73.63;;;36.22;;
70818;SDS011;58439;51.046;13.692;2022-10-17T06:39:08;72.90;;;33.80;;
70818;SDS011;58439;51.046;13.692;2022-10-17T06:41:54;65.00;;;32.30;;
70818;SDS011;58439;51.046;13.692;2022-10-17T06:44:35;66.63;;;31.08;;
70818;SDS011;58439;51.046;13.692;2022-10-17T06:47:22;61.58;;;32.55;;
70818;SDS011;58439;51.046;13.692;2022-10-17T06:49:53;64.97;;;32.13;;
70818;SDS011;58439;51.046;13.692;2022-10-17T06:52:29;55.97;;;29.75;;
70818;SDS011;58439;51.046;13.692;2022-10-17T06:55:17;69.68;;;34.50;;
70818;SDS011;58439;51.046;13.692;2022-10-17T06:58:16;58.88;;;29.85;;
70818;SDS011;58439;51.046;13.692;2022-10-17T07:01:04;62.42;;;31.25;;
70818;SDS011;58439;51.046;13.692;2022-10-17T07:03:38;59.65;;;30.60;;
70818;SDS011;58439;51.046;13.692;2022-10-17T07:06:06;66.13;;;29.52;;
70818;SDS011;58439;51.046;13.692;2022-10-17T07:08:37;58.10;;;29.50;;
70818;SDS011;58439;51.046;13.692;2022-10-17T07:11:10;58.72;;;29.27;;
70818;SDS011;58439;51.046;13.692;2022-10-17T07:13:40;58.22;;;29.02;;
70818;SDS011;58439;51.046;13.692;2022-10-17T07:16:09;60.13;;;30.17;;
70818;SDS011;58439;51.046;13.692;2022-10-17T07:18:39;56.28;;;29.15;;
70818;SDS011;58439;51.046;13.692;2022-10-17T07:21:07;58.80;;;29.30;;
70818;SDS011;58439;51.046;13.692;2022-10-17T07:23:37;59.05;;;27.92;;
70818;SDS011;58439;51.046;13.692;2022-10-17T07:26:06;59.30;;;28.40;;
70818;SDS011;58439;51.046;13.692;2022-10-17T07:28:41;52.70;;;28.33;;
70818;SDS011;58439;51.046;13.692;2022-10-17T07:31:29;53.85;;;27.55;;
70818;SDS011;58439;51.046;13.692;2022-10-17T07:33:58;56.88;;;29.02;;
70818;SDS011;58439;51.046;13.692;2022-10-17T07:36:26;53.55;;;28.02;;
70818;SDS011;58439;51.046;13.692;2022-10-17T07:38:55;52.92;;;26.60;;
70818;SDS011;58439;51.046;13.692;2022-10-17T07:41:24;54.05;;;27.65;;
70818;SDS011;58439;51.046;13.692;2022-10-17T07:43:52;50.70;;;26.65;;
70818;SDS011;58439;51.046;13.692;2022-10-17T07:46:24;48.10;;;26.05;;
70818;SDS011;58439;51.046;13.692;2022-10-17T07:48:51;47.33;;;26.52;;
70818;SDS011;58439;51.046;13.692;2022-10-17T07:51:19;42.38;;;24.75;;
70818;SDS011;58439;51.046;13.692;2022-10-17T07:53:47;46.63;;;25.13;;
70818;SDS011;58439;51.046;13.692;2022-10-17T07:56:14;52.63;;;25.33;;
70818;SDS011;58439;51.046;13.692;2022-10-17T07:58:42;46.92;;;24.25;;
70818;SDS011;58439;51.046;13.692;2022-10-17T08:01:10;45.50;;;23.73;;
70818;SDS011;58439;51.046;13.692;2022-10-17T08:03:45;42.50;;;23.70;;
70818;SDS011;58439;51.046;13.692;2022-10-17T08:06:16;47.55;;;24.48;;
70818;SDS011;58439;51.046;13.692;2022-10-17T08:08:43;39.80;;;22.90;;
70818;SDS011;58439;51.046;13.692;2022-10-17T08:11:15;42.33;;;23.65;;
70818;SDS011;58439;51.046;13.692;2022-10-17T08:13:43;43.63;;;22.92;;
70818;SDS011;58439;51.046;13.692;2022-10-17T08:16:17;46.05;;;24.17;;
70818;SDS011;58439;51.046;13.692;2022-10-17T08:18:44;41.05;;;22.73;;
70818;SDS011;58439;51.046;13.692;2022-10-17T08:21:12;42.80;;;22.70;;
70818;SDS011;58439;51.046;13.692;2022-10-17T08:23:48;41.25;;;22.58;;
70818;SDS011;58439;51.046;13.692;2022-10-17T08:26:15;42.55;;;23.83;;
70818;SDS011;58439;51.046;13.692;2022-10-17T08:29:28;39.65;;;22.52;;
70818;SDS011;58439;51.046;13.692;2022-10-17T08:31:45;38.13;;;21.73;;
70818;SDS011;58439;51.046;13.692;2022-10-17T08:34:15;38.53;;;22.35;;
70818;SDS011;58439;51.046;13.692;2022-10-17T08:56:20;38.38;;;21.45;;
70818;SDS011;58439;51.046;13.692;2022-10-17T08:59:12;34.28;;;19.90;;
70818;SDS011;58439;51.046;13.692;2022-10-17T09:24:38;33.80;;;18.92;;
70818;SDS011;58439;51.046;13.692;2022-10-17T09:27:24;39.42;;;21.95;;
70818;SDS011;58439;51.046;13.692;2022-10-17T09:30:24;38.75;;;23.05;;
70818;SDS011;58439;51.046;13.692;2022-10-17T09:33:11;40.58;;;22.42;;
70818;SDS011;58439;51.046;13.692;2022-10-17T09:36:02;37.05;;;21.58;;
70818;SDS011;58439;51.046;13.692;2022-10-17T09:38:42;41.55;;;22.05;;
70818;SDS011;58439;51.046;13.692;2022-10-17T09:41:19;38.90;;;23.30;;
70818;SDS011;58439;51.046;13.692;2022-10-17T09:44:20;39.78;;;22.52;;
70818;SDS011;58439;51.046;13.692;2022-10-17T09:49:56;41.83;;;23.10;;
70818;SDS011;58439;51.046;13.692;2022-10-17T09:52:28;41.88;;;22.10;;
70818;SDS011;58439;51.046;13.692;2022-10-17T09:55:14;47.07;;;23.47;;
70818;SDS011;58439;51.046;13.692;2022-10-17T09:58:00;38.08;;;21.10;;
70818;SDS011;58439;51.046;13.692;2022-10-17T10:05:58;36.53;;;20.75;;
70818;SDS011;58439;51.046;13.692;2022-10-17T10:08:38;40.95;;;21.42;;
70818;SDS011;58439;51.046;13.692;2022-10-17T10:11:23;41.13;;;21.10;;
70818;SDS011;58439;51.046;13.692;2022-10-17T10:14:36;36.00;;;20.88;;
70818;SDS011;58439;51.046;13.692;2022-10-17T10:23:06;32.75;;;18.48;;
70818;SDS011;58439;51.046;13.692;2022-10-17T10:25:56;28.75;;;16.98;;
70818;SDS011;58439;51.046;13.692;2022-10-17T10:28:34;32.58;;;17.17;;
70818;SDS011;58439;51.046;13.692;2022-10-17T10:31:06;26.85;;;16.75;;
70818;SDS011;58439;51.046;13.692;2022-10-17T10:36:10;28.98;;;16.45;;
70818;SDS011;58439;51.046;13.692;2022-10-17T10:38:54;30.85;;;17.08;;
70818;SDS011;58439;51.046;13.692;2022-10-17T10:41:29;27.87;;;16.00;;
70818;SDS011;58439;51.046;13.692;2022-10-17T10:44:17;26.77;;;15.60;;
70818;SDS011;58439;51.046;13.692;2022-10-17T10:47:20;29.40;;;16.42;;
70818;SDS011;58439;51.046;13.692;2022-10-17T10:50:04;27.67;;;15.50;;
70818;SDS011;58439;51.046;13.692;2022-10-17T10:53:22;26.33;;;14.88;;
70818;SDS011;58439;51.046;13.692;2022-10-17T10:58:55;23.23;;;13.10;;
70818;SDS011;58439;51.046;13.692;2022-10-17T11:06:51;22.90;;;13.32;;
70818;SDS011;58439;51.046;13.692;2022-10-17T11:11:38;20.95;;;12.52;;
70818;SDS011;58439;51.046;13.692;2022-10-17T11:21:52;22.17;;;12.48;;
70818;SDS011;58439;51.046;13.692;2022-10-17T11:24:49;21.55;;;13.40;;
70818;SDS011;58439;51.046;13.692;2022-10-17T11:27:23;21.45;;;12.95;;
70818;SDS011;58439;51.046;13.692;2022-10-17T11:29:54;20.77;;;12.30;;
70818;SDS011;58439;51.046;13.692;2022-10-17T11:32:25;20.13;;;12.10;;
70818;SDS011;58439;51.046;13.692;2022-10-17T11:35:03;20.63;;;13.00;;
70818;SDS011;58439;51.046;13.692;2022-10-17T11:37:49;22.08;;;12.40;;
70818;SDS011;58439;51.046;13.692;2022-10-17T11:40:43;17.63;;;12.70;;
70818;SDS011;58439;51.046;13.692;2022-10-17T11:43:31;21.98;;;12.38;;
70818;SDS011;58439;51.046;13.692;2022-10-17T11:46:15;21.15;;;12.88;;
70818;SDS011;58439;51.046;13.692;2022-10-17T11:51:44;19.05;;;12.35;;
70818;SDS011;58439;51.046;13.692;2022-10-17T11:54:29;20.80;;;12.82;;
70818;SDS011;58439;51.046;13.692;2022-10-17T12:00:21;17.35;;;11.48;;
70818;SDS011;58439;51.046;13.692;2022-10-17T12:06:42;20.90;;;12.60;;
70818;SDS011;58439;51.046;13.692;2022-10-17T12:12:30;19.85;;;12.25;;
70818;SDS011;58439;51.046;13.692;2022-10-17T12:32:11;15.43;;;10.52;;
70818;SDS011;58439;51.046;13.692;2022-10-17T12:34:46;18.27;;;11.35;;
70818;SDS011;58439;51.046;13.692;2022-10-17T12:45:52;15.35;;;10.45;;
70818;SDS011;58439;51.046;13.692;2022-10-17T12:51:12;18.23;;;11.55;;
70818;SDS011;58439;51.046;13.692;2022-10-17T12:54:17;19.08;;;11.18;;
70818;SDS011;58439;51.046;13.692;2022-10-17T12:56:54;17.63;;;10.75;;
70818;SDS011;58439;51.046;13.692;2022-10-17T12:59:25;15.88;;;10.25;;
70818;SDS011;58439;51.046;13.692;2022-10-17T13:01:58;20.55;;;11.63;;
70818;SDS011;58439;51.046;13.692;2022-10-17T13:04:29;15.73;;;10.93;;
70818;SDS011;58439;51.046;13.692;2022-10-17T13:06:57;19.80;;;11.07;;
70818;SDS011;58439;51.046;13.692;2022-10-17T13:12:03;19.55;;;11.15;;
70818;SDS011;58439;51.046;13.692;2022-10-17T13:14:40;16.33;;;10.35;;
70818;SDS011;58439;51.046;13.692;2022-10-17T13:17:22;17.73;;;10.13;;
70818;SDS011;58439;51.046;13.692;2022-10-17T13:19:53;14.20;;;9.05;;
70818;SDS011;58439;51.046;13.692;2022-10-17T13:22:31;14.02;;;9.55;;
70818;SDS011;58439;51.046;13.692;2022-10-17T13:25:11;16.77;;;9.93;;
70818;SDS011;58439;51.046;13.692;2022-10-17T13:28:10;14.93;;;10.00;;
70818;SDS011;58439;51.046;13.692;2022-10-17T13:30:44;15.30;;;10.30;;
70818;SDS011;58439;51.046;13.692;2022-10-17T13:33:17;20.33;;;10.43;;
70818;SDS011;58439;51.046;13.692;2022-10-17T13:36:12;18.13;;;9.02;;
70818;SDS011;58439;51.046;13.692;2022-10-17T13:38:45;16.65;;;10.38;;
70818;SDS011;58439;51.046;13.692;2022-10-17T13:41:13;17.33;;;11.15;;
70818;SDS011;58439;51.046;13.692;2022-10-17T13:44:05;20.42;;;10.93;;
70818;SDS011;58439;51.046;13.692;2022-10-17T13:46:42;17.02;;;10.65;;
70818;SDS011;58439;51.046;13.692;2022-10-17T13:50:15;19.27;;;11.10;;
70818;SDS011;58439;51.046;13.692;2022-10-17T13:53:19;20.88;;;11.70;;
70818;SDS011;58439;51.046;13.692;2022-10-17T13:55:59;19.75;;;11.48;;
70818;SDS011;58439;51.046;13.692;2022-10-17T13:58:56;20.88;;;11.95;;
70818;SDS011;58439;51.046;13.692;2022-10-17T14:01:33;19.25;;;11.30;;
70818;SDS011;58439;51.046;13.692;2022-10-17T14:04:03;21.65;;;11.77;;
70818;SDS011;58439;51.046;13.692;2022-10-17T14:06:44;18.65;;;12.48;;
70818;SDS011;58439;51.046;13.692;2022-10-17T14:09:19;19.67;;;12.25;;
70818;SDS011;58439;51.046;13.692;2022-10-17T14:12:09;27.58;;;12.98;;
70818;SDS011;58439;51.046;13.692;2022-10-17T14:17:41;21.92;;;12.80;;
70818;SDS011;58439;51.046;13.692;2022-10-17T14:20:18;20.73;;;12.50;;
70818;SDS011;58439;51.046;13.692;2022-10-17T14:26:03;22.77;;;13.15;;
70818;SDS011;58439;51.046;13.692;2022-10-17T14:28:31;23.70;;;13.30;;
70818;SDS011;58439;51.046;13.692;2022-10-17T14:33:49;23.75;;;14.38;;
70818;SDS011;58439;51.046;13.692;2022-10-17T14:36:20;25.85;;;13.93;;
70818;SDS011;58439;51.046;13.692;2022-10-17T14:38:57;26.08;;;15.15;;
70818;SDS011;58439;51.046;13.692;2022-10-17T14:41:29;26.10;;;14.95;;
70818;SDS011;58439;51.046;13.692;2022-10-17T14:44:28;27.80;;;14.90;;
70818;SDS011;58439;51.046;13.692;2022-10-17T14:47:02;24.38;;;14.60;;
70818;SDS011;58439;51.046;13.692;2022-10-17T14:50:07;28.77;;;15.50;;
70818;SDS011;58439;51.046;13.692;2022-10-17T14:55:59;26.45;;;15.45;;
70818;SDS011;58439;51.046;13.692;2022-10-17T14:58:32;26.52;;;15.43;;
70818;SDS011;58439;51.046;13.692;2022-10-17T15:01:03;26.15;;;15.52;;
70818;SDS011;58439;51.046;13.692;2022-10-17T15:03:30;25.77;;;14.82;;
70818;SDS011;58439;51.046;13.692;2022-10-17T15:05:57;27.42;;;15.88;;
70818;SDS011;58439;51.046;13.692;2022-10-17T15:08:49;28.45;;;15.60;;
70818;SDS011;58439;51.046;13.692;2022-10-17T15:11:16;27.33;;;16.23;;
70818;SDS011;58439;51.046;13.692;2022-10-17T15:13:48;24.98;;;15.55;;
70818;SDS011;58439;51.046;13.692;2022-10-17T15:16:39;29.40;;;17.48;;
70818;SDS011;58439;51.046;13.692;2022-10-17T15:19:19;29.77;;;15.90;;
70818;SDS011;58439;51.046;13.692;2022-10-17T15:21:48;28.75;;;16.73;;
70818;SDS011;58439;51.046;13.692;2022-10-17T15:24:32;31.10;;;18.17;;
70818;SDS011;58439;51.046;13.692;2022-10-17T15:27:16;33.72;;;18.05;;
70818;SDS011;58439;51.046;13.692;2022-10-17T15:29:48;34.60;;;17.85;;
70818;SDS011;58439;51.046;13.692;2022-10-17T15:32:25;33.35;;;18.52;;
70818;SDS011;58439;51.046;13.692;2022-10-17T15:35:14;33.13;;;19.20;;
70818;SDS011;58439;51.046;13.692;2022-10-17T15:37:46;32.53;;;18.38;;
70818;SDS011;58439;51.046;13.692;2022-10-17T15:40:20;33.42;;;19.60;;
70818;SDS011;58439;51.046;13.692;2022-10-17T15:42:52;36.63;;;19.02;;
70818;SDS011;58439;51.046;13.692;2022-10-17T15:45:28;34.85;;;19.80;;
70818;SDS011;58439;51.046;13.692;2022-10-17T15:48:14;32.53;;;18.35;;
70818;SDS011;58439;51.046;13.692;2022-10-17T15:50:58;36.80;;;20.40;;
70818;SDS011;58439;51.046;13.692;2022-10-17T15:53:38;35.00;;;20.25;;
70818;SDS011;58439;51.046;13.692;2022-10-17T15:56:38;42.08;;;20.25;;
70818;SDS011;58439;51.046;13.692;2022-10-17T15:59:30;38.35;;;19.95;;
70818;SDS011;58439;51.046;13.692;2022-10-17T16:02:11;40.65;;;20.60;;
70818;SDS011;58439;51.046;13.692;2022-10-17T16:04:56;41.95;;;21.75;;
70818;SDS011;58439;51.046;13.692;2022-10-17T16:07:37;34.63;;;19.35;;
70818;SDS011;58439;51.046;13.692;2022-10-17T16:10:09;41.15;;;20.50;;
70818;SDS011;58439;51.046;13.692;2022-10-17T16:12:53;36.47;;;20.42;;
70818;SDS011;58439;51.046;13.692;2022-10-17T16:15:55;37.90;;;20.08;;
70818;SDS011;58439;51.046;13.692;2022-10-17T16:18:28;35.05;;;19.63;;
70818;SDS011;58439;51.046;13.692;2022-10-17T16:21:46;42.53;;;22.50;;
70818;SDS011;58439;51.046;13.692;2022-10-17T16:24:17;37.40;;;21.48;;
70818;SDS011;58439;51.046;13.692;2022-10-17T16:27:02;40.33;;;22.60;;
70818;SDS011;58439;51.046;13.692;2022-10-17T16:29:32;43.42;;;22.10;;
70818;SDS011;58439;51.046;13.692;2022-10-17T16:32:45;40.10;;;21.40;;
70818;SDS011;58439;51.046;13.692;2022-10-17T16:36:25;40.63;;;20.58;;
70818;SDS011;58439;51.046;13.692;2022-10-17T16:39:31;38.83;;;21.58;;
70818;SDS011;58439;51.046;13.692;2022-10-17T16:42:25;37.95;;;21.05;;
70818;SDS011;58439;51.046;13.692;2022-10-17T16:45:04;39.75;;;20.80;;
70818;SDS011;58439;51.046;13.692;2022-10-17T16:47:32;41.80;;;22.10;;
70818;SDS011;58439;51.046;13.692;2022-10-17T16:50:00;37.33;;;21.13;;
70818;SDS011;58439;51.046;13.692;2022-10-17T16:52:28;42.95;;;22.33;;
70818;SDS011;58439;51.046;13.692;2022-10-17T16:55:10;44.72;;;22.95;;
70818;SDS011;58439;51.046;13.692;2022-10-17T16:58:02;47.38;;;22.15;;
70818;SDS011;58439;51.046;13.692;2022-10-17T17:00:30;40.92;;;21.52;;
70818;SDS011;58439;51.046;13.692;2022-10-17T17:02:57;39.15;;;21.25;;
70818;SDS011;58439;51.046;13.692;2022-10-17T17:11:28;42.90;;;22.50;;
70818;SDS011;58439;51.046;13.692;2022-10-17T17:14:16;40.72;;;22.67;;
70818;SDS011;58439;51.046;13.692;2022-10-17T17:16:47;44.70;;;23.30;;
70818;SDS011;58439;51.046;13.692;2022-10-17T17:19:23;54.47;;;26.65;;
70818;SDS011;58439;51.046;13.692;2022-10-17T17:22:09;46.30;;;22.83;;
70818;SDS011;58439;51.046;13.692;2022-10-17T17:24:58;43.53;;;23.10;;
70818;SDS011;58439;51.046;13.692;2022-10-17T17:28:05;44.25;;;25.15;;
70818;SDS011;58439;51.046;13.692;2022-10-17T17:30:46;43.53;;;23.70;;
70818;SDS011;58439;51.046;13.692;2022-10-17T17:33:31;38.00;;;22.95;;
70818;SDS011;58439;51.046;13.692;2022-10-17T17:36:18;47.70;;;24.27;;
70818;SDS011;58439;51.046;13.692;2022-10-17T17:38:58;43.40;;;23.98;;
70818;SDS011;58439;51.046;13.692;2022-10-17T17:41:31;46.53;;;25.25;;
70818;SDS011;58439;51.046;13.692;2022-10-17T17:44:01;42.63;;;24.00;;
70818;SDS011;58439;51.046;13.692;2022-10-17T18:03:19;48.65;;;24.98;;
70818;SDS011;58439;51.046;13.692;2022-10-17T18:05:47;57.60;;;25.75;;
70818;SDS011;58439;51.046;13.692;2022-10-17T18:08:31;48.50;;;24.90;;
70818;SDS011;58439;51.046;13.692;2022-10-17T18:11:08;50.25;;;26.30;;
70818;SDS011;58439;51.046;13.692;2022-10-17T18:13:36;52.63;;;26.55;;
70818;SDS011;58439;51.046;13.692;2022-10-17T18:16:04;49.58;;;25.95;;
70818;SDS011;58439;51.046;13.692;2022-10-17T18:18:43;49.72;;;26.88;;
70818;SDS011;58439;51.046;13.692;2022-10-17T18:21:12;49.50;;;25.95;;
70818;SDS011;58439;51.046;13.692;2022-10-17T18:40:52;54.70;;;28.38;;
70818;SDS011;58439;51.046;13.692;2022-10-17T18:43:47;59.85;;;27.95;;
70818;SDS011;58439;51.046;13.692;2022-10-17T18:46:24;51.92;;;28.75;;
70818;SDS011;58439;51.046;13.692;2022-10-17T18:49:13;56.22;;;28.02;;
70818;SDS011;58439;51.046;13.692;2022-10-17T18:55:09;52.45;;;26.52;;
70818;SDS011;58439;51.046;13.692;2022-10-17T19:01:39;56.90;;;28.00;;
70818;SDS011;58439;51.046;13.692;2022-10-17T19:21:16;57.70;;;27.60;;
70818;SDS011;58439;51.046;13.692;2022-10-17T19:25:23;54.28;;;28.13;;
70818;SDS011;58439;51.046;13.692;2022-10-17T19:27:50;59.92;;;28.65;;
70818;SDS011;58439;51.046;13.692;2022-10-17T19:30:17;55.22;;;28.48;;
70818;SDS011;58439;51.046;13.692;2022-10-17T19:32:45;57.65;;;29.10;;
70818;SDS011;58439;51.046;13.692;2022-10-17T19:35:13;56.53;;;28.50;;